createdAt,value
2023-01-09T00:01:43.252Z,62.04
2023-01-09T00:04:11.648Z,62.57
2023-01-09T00:06:43.528Z,63.08
2023-01-09T00:09:12.210Z,63.12
2023-01-09T00:11:40.463Z,62.56
2023-01-09T00:14:10.904Z,62.79
2023-01-09T00:16:39.438Z,62.56
2023-01-09T00:19:07.801Z,63.12
2023-01-09T00:21:36.785Z,63.28
2023-01-09T00:24:07.074Z,63.20
2023-01-09T00:26:35.869Z,63.71
2023-01-09T00:29:04.225Z,64.16
2023-01-09T00:31:32.842Z,62.50
2023-01-09T00:34:02.625Z,62.82
2023-01-09T00:36:31.287Z,62.85
2023-01-09T00:38:59.860Z,62.95
2023-01-09T00:41:32.653Z,62.98
2023-01-09T00:44:06.437Z,62.89
2023-01-09T00:46:40.093Z,63.20
2023-01-09T00:49:09.843Z,63.57
2023-01-09T00:51:39.327Z,64.00
2023-01-09T00:54:07.789Z,64.52
2023-01-09T00:56:38.300Z,64.37
2023-01-09T00:59:07.546Z,63.83
2023-01-09T01:01:35.953Z,62.50
2023-01-09T01:04:24.676Z,63.49
2023-01-09T01:07:10.536Z,63.71
2023-01-09T01:09:39.003Z,63.52
2023-01-09T01:12:08.782Z,64.32
2023-01-09T01:14:37.759Z,64.93
2023-01-09T01:17:07.453Z,65.53
2023-01-09T01:19:36.630Z,65.31
2023-01-09T01:22:04.995Z,67.14
2023-01-09T01:24:33.679Z,67.26
2023-01-09T01:27:02.104Z,68.44
2023-01-09T01:29:31.821Z,68.65
2023-01-09T01:32:00.246Z,68.65
2023-01-09T01:34:30.153Z,67.26
2023-01-09T01:36:58.384Z,66.89
2023-01-09T01:39:27.845Z,68.34
2023-01-09T01:41:56.197Z,67.97
2023-01-09T01:45:00.954Z,67.31
2023-01-09T01:47:35.790Z,67.05
2023-01-09T01:50:09.367Z,66.85
2023-01-09T01:52:39.046Z,66.35
2023-01-09T01:55:10.205Z,65.99
2023-01-09T01:57:41.837Z,66.05
2023-01-09T02:00:13.890Z,66.41
2023-01-09T02:02:43.721Z,66.96
2023-01-09T02:05:13.202Z,66.19
2023-01-09T02:07:41.576Z,65.60
2023-01-09T02:10:11.185Z,66.31
2023-01-09T02:12:39.494Z,66.86
2023-01-09T02:15:12.945Z,67.09
2023-01-09T02:18:16.835Z,66.89
2023-01-09T02:20:58.417Z,68.86
2023-01-09T02:24:00.845Z,68.62
2023-01-09T02:26:43.422Z,68.79
2023-01-09T02:29:47.135Z,68.73
2023-01-09T02:32:28.423Z,68.67
2023-01-09T02:35:08.467Z,67.93
2023-01-09T02:37:46.216Z,67.31
2023-01-09T02:40:23.675Z,66.25
2023-01-09T02:42:53.548Z,66.36
2023-01-09T02:45:21.933Z,66.63
2023-01-09T02:47:51.743Z,66.82
2023-01-09T02:50:23.885Z,66.70
2023-01-09T02:53:15.309Z,68.72
2023-01-09T02:55:55.735Z,67.87
2023-01-09T02:58:36.148Z,69.38
2023-01-09T03:01:19.782Z,68.50
2023-01-09T03:03:57.654Z,69.99
2023-01-09T03:06:33.743Z,70.70
2023-01-09T03:09:08.262Z,69.46
2023-01-09T03:11:41.533Z,69.63
2023-01-09T03:14:15.840Z,69.57
2023-01-09T03:16:49.741Z,70.20
2023-01-09T03:19:22.649Z,69.48
2023-01-09T03:21:52.398Z,68.62
2023-01-09T03:24:20.764Z,68.16
2023-01-09T03:26:49.254Z,67.49
2023-01-09T03:29:17.577Z,67.66
2023-01-09T03:31:45.994Z,68.00
2023-01-09T03:34:14.571Z,69.10
2023-01-09T03:36:44.298Z,70.35
2023-01-09T03:39:12.649Z,68.98
2023-01-09T03:41:40.986Z,69.66
2023-01-09T03:44:09.186Z,69.98
2023-01-09T03:46:37.521Z,69.18
2023-01-09T03:49:05.757Z,68.54
2023-01-09T03:51:33.957Z,67.80
2023-01-09T03:54:03.656Z,67.71
2023-01-09T03:56:31.955Z,68.27
2023-01-09T03:59:00.304Z,67.27
2023-01-09T04:01:28.716Z,68.12
2023-01-09T04:03:57.147Z,68.79
2023-01-09T04:06:25.518Z,67.49
2023-01-09T04:08:53.955Z,68.00
2023-01-09T04:11:23.626Z,69.22
2023-01-09T04:13:52.001Z,67.72
2023-01-09T04:16:20.377Z,67.69
2023-01-09T04:18:48.661Z,67.04
2023-01-09T04:21:16.985Z,70.72
2023-01-09T04:23:45.850Z,69.67
2023-01-09T04:26:14.108Z,68.33
2023-01-09T04:28:43.863Z,69.70
2023-01-09T04:31:12.196Z,68.74
2023-01-09T04:33:40.691Z,66.42
2023-01-09T04:36:09.781Z,66.45
2023-01-09T04:38:38.071Z,66.72
2023-01-09T04:41:06.537Z,67.42
2023-01-09T04:43:34.801Z,66.40
2023-01-09T04:46:05.046Z,65.61
2023-01-09T04:48:33.358Z,66.31
2023-01-09T04:51:01.623Z,66.70
2023-01-09T04:53:29.915Z,67.63
2023-01-09T04:55:58.228Z,68.23
2023-01-09T04:58:26.631Z,68.57
2023-01-09T05:00:55.149Z,67.89
2023-01-09T05:03:24.991Z,67.97
2023-01-09T05:05:53.355Z,69.00
2023-01-09T05:08:21.651Z,69.37
2023-01-09T05:10:49.913Z,69.93
2023-01-09T05:13:19.170Z,70.73
2023-01-09T05:15:47.574Z,70.08
2023-01-09T05:18:17.727Z,69.66
2023-01-09T05:20:47.355Z,69.96
2023-01-09T05:23:16.630Z,71.23
2023-01-09T05:25:44.866Z,71.01
2023-01-09T05:28:13.160Z,69.90
2023-01-09T05:30:41.499Z,70.24
2023-01-09T05:33:10.034Z,70.56
2023-01-09T05:35:38.315Z,71.33
2023-01-09T05:38:08.260Z,70.46
2023-01-09T05:40:40.372Z,70.22
2023-01-09T05:43:09.116Z,69.83
2023-01-09T05:45:37.525Z,69.49
2023-01-09T05:48:06.093Z,71.59
2023-01-09T05:50:34.285Z,70.76
2023-01-09T05:53:02.555Z,68.52
2023-01-09T05:55:32.285Z,70.25
2023-01-09T05:58:04.727Z,72.61
2023-01-09T06:00:33.083Z,72.13
2023-01-09T06:03:01.639Z,72.29
2023-01-09T06:05:29.854Z,71.75
2023-01-09T06:07:58.193Z,71.59
2023-01-09T06:10:26.463Z,70.15
2023-01-09T06:12:56.115Z,70.88
2023-01-09T06:15:24.493Z,69.86
2023-01-09T06:17:52.863Z,70.43
2023-01-09T06:20:21.157Z,70.79
2023-01-09T06:22:52.155Z,72.07
2023-01-09T06:25:21.415Z,72.60
2023-01-09T06:27:50.358Z,73.25
2023-01-09T06:30:20.818Z,74.16
2023-01-09T06:32:49.768Z,75.99
2023-01-09T06:35:20.666Z,73.38
2023-01-09T06:37:49.914Z,74.10
2023-01-09T06:40:21.220Z,73.36
2023-01-09T06:42:50.699Z,75.85
2023-01-09T06:45:20.484Z,75.76
2023-01-09T06:47:50.215Z,76.65
2023-01-09T06:50:19.065Z,72.87
2023-01-09T06:52:47.424Z,71.55
2023-01-09T06:55:16.805Z,71.75
2023-01-09T06:57:45.303Z,72.09
2023-01-09T07:00:14.383Z,73.48
2023-01-09T07:02:44.080Z,74.63
2023-01-09T07:05:12.822Z,74.32
2023-01-09T07:07:41.496Z,74.18
2023-01-09T07:10:11.428Z,72.33
2023-01-09T07:12:39.677Z,74.32
2023-01-09T07:15:09.067Z,75.61
2023-01-09T07:17:37.398Z,75.36
2023-01-09T07:20:08.529Z,74.25
2023-01-09T07:22:36.847Z,73.95
2023-01-09T07:25:05.616Z,73.22
2023-01-09T07:27:33.873Z,75.13
2023-01-09T07:30:02.090Z,77.13
2023-01-09T07:32:30.476Z,75.84
2023-01-09T07:34:58.963Z,72.57
2023-01-09T07:37:28.728Z,72.10
2023-01-09T07:39:57.024Z,71.36
2023-01-09T07:42:25.315Z,70.43
2023-01-09T07:44:53.635Z,71.74
2023-01-09T07:47:22.102Z,71.53
2023-01-09T07:49:50.344Z,72.17
2023-01-09T07:52:18.548Z,71.47
2023-01-09T07:54:48.328Z,69.86
2023-01-09T07:57:16.570Z,67.93
2023-01-09T07:59:44.888Z,67.00
2023-01-09T08:02:13.307Z,65.32
2023-01-09T08:04:41.604Z,65.37
2023-01-09T08:07:09.912Z,65.02
2023-01-09T08:09:38.152Z,65.44
2023-01-09T08:12:08.045Z,64.56
2023-01-09T08:14:37.017Z,66.67
2023-01-09T08:17:05.395Z,66.73
2023-01-09T08:19:33.754Z,64.68
2023-01-09T08:22:01.995Z,63.95
2023-01-09T08:24:32.876Z,64.89
2023-01-09T08:27:01.127Z,65.57
2023-01-09T08:29:31.092Z,66.05
2023-01-09T08:31:59.433Z,66.03
2023-01-09T08:34:27.917Z,65.18
2023-01-09T08:36:56.323Z,63.70
2023-01-09T08:39:24.520Z,64.98
2023-01-09T08:42:10.091Z,66.37
2023-01-09T08:44:57.456Z,67.56
2023-01-09T08:47:26.243Z,65.66
2023-01-09T08:49:54.563Z,66.25
2023-01-09T08:52:22.790Z,65.59
2023-01-09T08:54:51.071Z,67.98
2023-01-09T08:57:19.628Z,69.59
2023-01-09T08:59:49.385Z,70.31
2023-01-09T09:02:17.720Z,69.41
2023-01-09T09:04:46.405Z,68.16
2023-01-09T09:07:15.429Z,67.43
2023-01-09T09:09:43.724Z,67.84
2023-01-09T09:12:11.942Z,67.56
2023-01-09T09:14:57.892Z,66.05
2023-01-09T09:17:29.041Z,65.34
2023-01-09T09:19:57.272Z,66.25
2023-01-09T09:22:25.614Z,62.46
2023-01-09T09:24:53.850Z,61.00
2023-01-09T09:27:22.103Z,60.12
2023-01-09T09:29:50.399Z,60.20
2023-01-09T09:32:18.690Z,58.20
2023-01-09T09:34:48.374Z,55.40
2023-01-09T09:37:16.907Z,54.62
2023-01-09T09:39:45.214Z,54.39
2023-01-09T09:43:06.772Z,53.38
2023-01-09T09:45:49.352Z,50.14
2023-01-09T09:48:30.705Z,49.01
2023-01-09T09:51:18.520Z,48.83
2023-01-09T09:53:52.948Z,48.58
2023-01-09T09:56:24.682Z,48.41
2023-01-09T09:58:57.989Z,49.07
2023-01-09T10:01:36.005Z,48.48
2023-01-09T10:04:10.675Z,48.18
2023-01-09T10:06:44.472Z,48.74
2023-01-09T10:09:21.823Z,46.59
2023-01-09T10:11:58.362Z,46.25
2023-01-09T10:14:27.100Z,46.52
2023-01-09T10:17:28.316Z,45.33
2023-01-09T10:20:21.811Z,46.05
2023-01-09T10:23:00.720Z,45.34
2023-01-09T10:25:34.488Z,46.21
2023-01-09T10:28:21.736Z,47.03
2023-01-09T10:30:53.277Z,47.71
2023-01-09T10:33:39.750Z,49.70
2023-01-09T10:36:45.920Z,48.86
2023-01-09T10:39:22.154Z,49.08
2023-01-09T10:41:58.558Z,49.34
2023-01-09T10:44:34.866Z,47.26
2023-01-09T10:47:07.174Z,46.33
2023-01-09T10:49:37.072Z,47.56
2023-01-09T10:52:16.907Z,47.03
2023-01-09T10:54:53.285Z,45.69
2023-01-09T10:57:36.723Z,43.23
2023-01-09T11:00:06.754Z,43.42
2023-01-09T11:02:36.512Z,41.88
2023-01-09T11:05:04.933Z,40.17
2023-01-09T11:07:37.876Z,39.46
2023-01-09T11:10:11.972Z,39.79
2023-01-09T11:12:41.310Z,40.19
2023-01-09T11:15:32.078Z,40.62
2023-01-09T11:18:19.955Z,40.82
2023-01-09T11:20:48.481Z,41.97
2023-01-09T11:23:28.975Z,39.83
2023-01-09T11:26:00.333Z,39.81
2023-01-09T11:28:29.403Z,39.63
2023-01-09T11:31:01.145Z,38.35
2023-01-09T11:33:31.735Z,38.95
2023-01-09T11:36:05.386Z,37.79
2023-01-09T11:38:46.920Z,40.69
2023-01-09T11:41:20.950Z,39.49
2023-01-09T11:43:52.266Z,41.60
2023-01-09T11:46:38.870Z,42.76
2023-01-09T11:49:22.655Z,40.32
2023-01-09T11:52:15.061Z,40.13
2023-01-09T11:54:47.292Z,39.36
2023-01-09T11:57:17.564Z,38.45
2023-01-09T11:59:45.840Z,38.77
2023-01-09T12:02:38.792Z,38.54
2023-01-09T12:05:18.742Z,36.91
2023-01-09T12:08:07.132Z,36.33
2023-01-09T12:10:52.278Z,37.33
2023-01-09T12:13:38.328Z,37.29
2023-01-09T12:16:14.448Z,36.07
2023-01-09T12:19:10.295Z,35.57
2023-01-09T12:21:47.635Z,35.32
2023-01-09T12:24:56.883Z,36.89
2023-01-09T12:27:41.580Z,37.84
2023-01-09T12:30:36.219Z,38.04
2023-01-09T12:33:19.481Z,37.60
2023-01-09T12:35:55.138Z,39.66
2023-01-09T12:38:40.819Z,38.60
2023-01-09T12:41:26.105Z,38.53
2023-01-09T12:44:06.613Z,38.56
2023-01-09T12:46:41.926Z,38.82
2023-01-09T12:49:24.851Z,38.88
2023-01-09T12:52:01.490Z,40.28
2023-01-09T12:54:36.207Z,38.73
2023-01-09T12:57:10.631Z,39.51
2023-01-09T12:59:42.796Z,38.00
2023-01-09T13:02:25.336Z,39.14
2023-01-09T13:04:58.232Z,39.80
2023-01-09T13:07:31.592Z,41.30
2023-01-09T13:10:06.173Z,42.07
2023-01-09T13:12:39.797Z,42.24
2023-01-09T13:15:23.693Z,41.39
2023-01-09T13:17:57.067Z,39.43
2023-01-09T13:20:36.096Z,42.83
2023-01-09T13:23:06.541Z,42.15
2023-01-09T13:25:44.158Z,40.89
2023-01-09T13:28:20.285Z,40.86
2023-01-09T13:31:28.890Z,40.79
2023-01-09T13:34:01.532Z,41.58
2023-01-09T13:36:34.276Z,41.94
2023-01-09T13:39:03.240Z,41.85
2023-01-09T13:41:50.617Z,43.48
2023-01-09T13:44:26.218Z,43.26
2023-01-09T13:46:57.115Z,43.25
2023-01-09T13:50:06.608Z,42.88
2023-01-09T13:52:38.035Z,41.83
2023-01-09T13:55:26.102Z,42.93
2023-01-09T13:58:22.782Z,42.32
2023-01-09T14:00:54.636Z,44.18
2023-01-09T14:03:27.237Z,43.82
2023-01-09T14:06:17.861Z,43.93
2023-01-09T14:08:49.225Z,43.89
2023-01-09T14:11:27.639Z,44.71
2023-01-09T14:14:22.442Z,46.36
2023-01-09T14:16:50.912Z,47.83
2023-01-09T14:19:31.431Z,47.22
2023-01-09T14:22:02.108Z,47.52
2023-01-09T14:24:33.544Z,47.96
2023-01-09T14:27:06.095Z,47.78
2023-01-09T14:29:45.387Z,48.48
2023-01-09T14:32:39.404Z,49.25
2023-01-09T14:35:16.128Z,49.66
2023-01-09T14:37:50.983Z,51.31
2023-01-09T14:40:23.930Z,51.47
2023-01-09T14:42:55.628Z,51.01
2023-01-09T14:45:25.577Z,51.28
2023-01-09T14:47:57.724Z,54.37
2023-01-09T14:50:34.342Z,55.27
2023-01-09T14:53:08.410Z,53.77
2023-01-09T14:55:51.197Z,53.49
2023-01-09T14:58:24.899Z,54.74
2023-01-09T15:00:59.948Z,53.78
2023-01-09T15:03:33.251Z,53.65
2023-01-09T15:06:02.426Z,55.04
2023-01-09T15:08:33.702Z,54.83
2023-01-09T15:11:02.387Z,54.53
2023-01-09T15:13:38.233Z,54.77
2023-01-09T15:16:08.097Z,56.13
2023-01-09T15:18:43.179Z,58.37
2023-01-09T15:21:19.025Z,56.96
2023-01-09T15:23:48.750Z,56.60
2023-01-09T15:26:26.455Z,56.77
2023-01-09T15:29:01.399Z,56.92
2023-01-09T15:31:30.766Z,57.19
2023-01-09T15:33:59.165Z,58.15
2023-01-09T15:36:31.019Z,60.25
2023-01-09T15:39:01.497Z,61.26
2023-01-09T15:41:48.772Z,62.29
2023-01-09T15:44:20.763Z,60.60
2023-01-09T15:46:51.948Z,61.69
2023-01-09T15:49:20.775Z,62.53
2023-01-09T15:51:50.281Z,61.95
2023-01-09T15:54:28.621Z,61.46
2023-01-09T15:57:17.152Z,61.45
2023-01-09T15:59:45.425Z,60.59
2023-01-09T16:02:33.704Z,61.98
2023-01-09T16:05:07.603Z,61.07
2023-01-09T16:07:36.336Z,64.21
2023-01-09T16:10:06.730Z,63.80
2023-01-09T16:12:35.075Z,63.86
2023-01-09T16:15:03.521Z,63.40
2023-01-09T16:17:32.110Z,63.62
2023-01-09T16:20:13.448Z,63.02
2023-01-09T16:22:53.940Z,62.48
2023-01-09T16:25:30.552Z,62.18
2023-01-09T16:28:21.188Z,62.62
2023-01-09T16:30:57.909Z,64.08
2023-01-09T16:33:29.195Z,64.29
2023-01-09T16:36:00.129Z,65.91
2023-01-09T16:38:28.744Z,66.77
2023-01-09T16:41:23.933Z,67.20
2023-01-09T16:43:52.926Z,68.04
2023-01-09T16:46:22.607Z,68.02
2023-01-09T16:48:51.067Z,68.03
2023-01-09T16:51:21.695Z,67.34
2023-01-09T16:53:51.028Z,66.75
2023-01-09T16:56:24.591Z,65.74
2023-01-09T16:58:54.772Z,66.28
2023-01-09T17:01:24.023Z,65.94
2023-01-09T17:03:52.815Z,66.76
2023-01-09T17:06:24.873Z,66.63
2023-01-09T17:08:53.274Z,67.04
2023-01-09T17:11:25.590Z,66.57
2023-01-09T17:13:53.874Z,68.58
2023-01-09T17:16:22.287Z,67.85
2023-01-09T17:18:51.043Z,67.28
2023-01-09T17:21:20.935Z,67.79
2023-01-09T17:24:09.551Z,67.03
2023-01-09T17:26:57.432Z,67.34
2023-01-09T17:29:26.066Z,66.60
2023-01-09T17:31:54.377Z,65.16
2023-01-09T17:34:22.722Z,65.14
2023-01-09T17:36:51.177Z,65.94
2023-01-09T17:39:19.595Z,65.46
2023-01-09T17:41:49.376Z,65.68
2023-01-09T17:44:17.550Z,65.76
2023-01-09T17:46:46.326Z,66.91
2023-01-09T17:49:17.980Z,68.03
2023-01-09T17:51:46.747Z,67.59
2023-01-09T17:54:15.621Z,68.43
2023-01-09T17:56:46.819Z,68.04
2023-01-09T17:59:17.112Z,67.83
2023-01-09T18:01:46.335Z,68.32
2023-01-09T18:04:14.662Z,68.46
2023-01-09T18:06:43.148Z,67.84
2023-01-09T18:09:16.106Z,67.87
2023-01-09T18:11:45.160Z,67.94
2023-01-09T18:14:14.019Z,68.15
2023-01-09T18:16:45.501Z,68.70
2023-01-09T18:19:13.948Z,68.21
2023-01-09T18:21:42.235Z,68.36
2023-01-09T18:24:10.867Z,68.37
2023-01-09T18:26:39.232Z,67.81
2023-01-09T18:29:07.509Z,69.37
2023-01-09T18:31:35.798Z,71.21
2023-01-09T18:34:07.513Z,72.38
2023-01-09T18:36:35.845Z,71.26
2023-01-09T18:39:07.209Z,72.21
2023-01-09T18:41:35.687Z,73.51
2023-01-09T18:44:07.122Z,72.60
2023-01-09T18:46:35.397Z,75.37
2023-01-09T18:49:05.833Z,73.80
2023-01-09T18:51:36.091Z,75.18
2023-01-09T18:54:04.799Z,75.64
2023-01-09T18:56:33.067Z,74.05
2023-01-09T18:59:01.491Z,74.59
2023-01-09T19:01:31.005Z,74.59
2023-01-09T19:04:01.273Z,73.58
2023-01-09T19:06:31.630Z,76.13
2023-01-09T19:09:00.439Z,77.01
2023-01-09T19:11:28.816Z,76.07
2023-01-09T19:13:57.170Z,76.05
2023-01-09T19:16:25.453Z,76.89
2023-01-09T19:18:53.912Z,82.44
2023-01-09T19:21:26.865Z,78.76
2023-01-09T19:23:58.953Z,80.48
2023-01-09T19:26:28.762Z,78.11
2023-01-09T19:28:57.791Z,77.46
2023-01-09T19:31:28.705Z,77.24
2023-01-09T19:33:58.708Z,77.10
2023-01-09T19:36:27.359Z,77.03
2023-01-09T19:38:59.199Z,76.77
2023-01-09T19:41:27.950Z,76.42
2023-01-09T19:43:56.407Z,80.49
2023-01-09T19:46:26.243Z,85.46
2023-01-09T19:48:57.054Z,86.81
2023-01-09T19:51:25.620Z,86.09
2023-01-09T19:53:55.587Z,87.91
2023-01-09T19:56:27.284Z,90.60
2023-01-09T19:58:57.057Z,86.59
2023-01-09T20:01:27.665Z,85.40
2023-01-09T20:03:57.750Z,85.35
2023-01-09T20:06:27.708Z,82.16
2023-01-09T20:08:57.601Z,80.80
2023-01-09T20:11:29.091Z,80.45
2023-01-09T20:13:57.935Z,83.46
2023-01-09T20:16:28.691Z,81.68
2023-01-09T20:18:57.938Z,80.77
2023-01-09T20:21:28.004Z,79.88
2023-01-09T20:23:58.348Z,80.91
2023-01-09T20:26:28.827Z,82.74
2023-01-09T20:28:58.313Z,82.61
2023-01-09T20:31:28.933Z,82.63
2023-01-09T20:33:59.091Z,82.59
2023-01-09T20:36:30.247Z,82.71
2023-01-09T20:39:00.011Z,83.10
2023-01-09T20:41:31.534Z,86.63
2023-01-09T20:44:01.602Z,93.00
2023-01-09T20:46:32.151Z,95.42
2023-01-09T20:49:03.539Z,93.96
2023-01-09T20:51:32.275Z,93.90
2023-01-09T20:54:00.706Z,92.81
2023-01-09T20:56:32.087Z,92.47
2023-01-09T20:59:01.769Z,94.67
2023-01-09T21:01:30.208Z,98.08
2023-01-09T21:03:59.935Z,98.33
2023-01-09T21:06:29.139Z,97.54
2023-01-09T21:08:57.567Z,95.33
2023-01-09T21:11:25.929Z,96.24
2023-01-09T21:13:55.634Z,97.57
2023-01-09T21:16:25.737Z,100.00
2023-01-09T21:18:55.469Z,100.00
2023-01-09T21:21:27.381Z,100.00
2023-01-09T21:23:57.861Z,99.58
2023-01-09T21:26:29.151Z,100.00
2023-01-09T21:29:01.675Z,100.00
2023-01-09T21:31:34.903Z,100.00
2023-01-09T21:34:05.782Z,100.00
2023-01-09T21:36:35.689Z,100.00
2023-01-09T21:39:07.677Z,100.00
2023-01-09T21:41:53.955Z,100.00
2023-01-09T21:44:41.006Z,100.00
2023-01-09T21:47:09.559Z,100.00
2023-01-09T21:49:44.112Z,100.00
2023-01-09T21:52:13.045Z,100.00
2023-01-09T21:54:42.256Z,100.00
2023-01-09T21:57:10.542Z,100.00
2023-01-09T21:59:40.187Z,100.00
2023-01-09T22:02:11.475Z,100.00
2023-01-09T22:04:40.234Z,100.00
2023-01-09T22:07:10.107Z,100.00
2023-01-09T22:09:38.605Z,100.00
2023-01-09T22:12:07.252Z,100.00
2023-01-09T22:14:35.557Z,100.00
2023-01-09T22:17:05.224Z,100.00
2023-01-09T22:19:33.680Z,100.00
2023-01-09T22:22:03.818Z,100.00
2023-01-09T22:24:32.054Z,100.00
2023-01-09T22:27:00.465Z,100.00
2023-01-09T22:29:28.787Z,100.00
2023-01-09T22:31:57.140Z,100.00
2023-01-09T22:34:27.237Z,100.00
2023-01-09T22:36:55.622Z,100.00
2023-01-09T22:39:23.881Z,100.00
2023-01-09T22:41:55.270Z,100.00
2023-01-09T22:44:23.687Z,100.00
2023-01-09T22:46:52.008Z,100.00
2023-01-09T22:49:20.351Z,100.00
2023-01-09T22:51:50.059Z,100.00
2023-01-09T22:54:19.522Z,100.00
2023-01-09T22:56:47.850Z,100.00
2023-01-09T22:59:16.205Z,100.00
2023-01-09T23:01:44.569Z,100.00
2023-01-09T23:04:13.821Z,100.00
2023-01-09T23:06:42.083Z,100.00
2023-01-09T23:09:11.883Z,100.00
2023-01-09T23:11:57.440Z,100.00
2023-01-09T23:14:25.801Z,100.00
2023-01-09T23:16:54.175Z,100.00
2023-01-09T23:19:22.632Z,100.00
2023-01-09T23:21:50.895Z,100.00
2023-01-09T23:24:20.760Z,100.00
2023-01-09T23:26:49.898Z,100.00
2023-01-09T23:29:18.147Z,100.00
2023-01-09T23:31:46.921Z,100.00
2023-01-09T23:34:16.716Z,100.00
2023-01-09T23:36:47.673Z,100.00
2023-01-09T23:39:16.141Z,100.00
2023-01-09T23:42:03.363Z,100.00
2023-01-09T23:44:31.695Z,100.00
2023-01-09T23:47:00.209Z,100.00
2023-01-09T23:49:28.657Z,100.00
2023-01-09T23:51:57.406Z,100.00
2023-01-09T23:54:25.902Z,100.00
2023-01-09T23:56:56.947Z,100.00
2023-01-09T23:59:25.253Z,100.00
